Hlavní strana
METAR-TAF:

METAR-TAF

Letiště :

Vamdrup

Kolding, Dánsko

zeměpisná šířka: 55-26N, zeměpisná délka: 009-20E, výška: 44 m

Aktuální stav počasí

Zpráva byla vytvořena před 6 minutami, v 20:20 UTC
Východní vítr 10 kt
Teplota 11°C
Vlhkost vzduchu 94%
Tlak 1013 hPa

METAR: EKVD 142020Z AUTO 10010KT //// ///////// 11/10 Q1013

Čas: 22:26 (20:26 UTC)

Předpověď počasí

Zpráva byla vytvořena před 9 hodinami a 25 minutami, v 11:01 UTC
Předpověď platná od 14 v 12 UTC do 14 v 16 UTC
vítr z různých směrů 2 kt
Viditelnost 10 km a více
Oblačno až skoro zataženo ve výšce 2000 ft

TAF: EKVD 141101Z 1412/1416 VRB02KT 9999 BKN020

Stav a předpovědi počasí z více než 4 000 letišť (zprávy METAR a TAF).

Červené a žluté tečky na mapě představují dostupné meteorologické stanice.

Když kurzor umístíte na tečku, zobrazí se název stanice.

Pak kliknutím zobrazíte stav a předpověď počasí.

Chcete-li změnit mapu, kliknutím na zelené tlačítko se znaménkem +mapu přiblížíte, kliknutím na zelené tlačítko se znaménkem – mapu oddálíte a kliknutím na zelené šipky přejdete na sousední mapy.


METAR-TAF: